Terminal Aerodrome Forecast
Issued by NWS

Home | Current Version | Previous Version | Text Only | Print | Product List | Glossary On
Versions: 1 2 3 4 5 6 7 8 9 10 11 12 13 14 15 16 17 18 19
000
FTUS43 KGRB 230520
TAFMTW
TAF
KMTW 230520Z 2306/2406 30007KT P6SM FEW060
     FM231500 33008KT P6SM SCT040
      TEMPO 2316/2320 BKN040
     FM240000 34004KT P6SM SCT040=

USA.gov is the U.S. government's official web portal to all federal, state and local government web resources and services.